Главная страница
METAR-TAF:

METAR-TAF

Аэропорты :

Карлстад, Швеция

широта: 59-26-41N, долгота: 013-20-15E, высота над уровнем моря: 107 м

Текущие метеонаблюдения

Эта сводка был подготовлена 23 минут назад, в 20:50 UTC
Ветер 8 Узел от южный-юго-западный
Температура 10°C
Влажность 93%
Давление 1010 hPa
Видимость 10 км и более

METAR: ESOK 132050Z AUTO 20008KT 9999 FEW034/// BKN051/// 10/09 Q1010

Время: 23:13 (21:13 UTC)

Прогноз

Эта сводка был подготовлена 9 часа и 43 минут назад, в 11:30 UTC
Прогноз действительный с 13-го 12 UTC до 13-го 15 UTC
Ветер 9 Узел от южный
Видимость 10 км и более
Отдельные облака на высоте 3000 фута

TAF: ESOK 131130Z 1312/1315 17009KT 9999 SCT030

Метеонаблюдения и прогнозы для более 4000 аэропортов (сводки METAR и TAF).

Имеющиеся станции представлены на карте желтыми и красными точками.

Чтобы увидеть название станции, наведите на нее мышь.

Затем щелкните, чтобы увидеть метеонаблюдения и метеопрогнозы.

Управление картой: чтобы увеличить масштаб, щелкните зеленые кнопки с черным крестиком; чтобы уменьшить масштаб, щелкните зеленую кнопку с тире; для просмотра соседних карт щелкайте зеленые стрелки.


METAR-TAF: